sensor_id;sensor_type;location;lat;lon;timestamp;temperature;humidity
14741;DHT22;7462;53.530;9.414;2022-11-15T00:00:01;6.80;99.90
14741;DHT22;7462;53.530;9.414;2022-11-15T00:02:49;6.70;99.90
14741;DHT22;7462;53.530;9.414;2022-11-15T00:05:36;6.70;99.90
14741;DHT22;7462;53.530;9.414;2022-11-15T00:08:22;6.80;99.90
14741;DHT22;7462;53.530;9.414;2022-11-15T00:11:11;6.80;99.90
14741;DHT22;7462;53.530;9.414;2022-11-15T00:13:58;6.80;99.90
14741;DHT22;7462;53.530;9.414;2022-11-15T00:16:47;6.80;99.90
14741;DHT22;7462;53.530;9.414;2022-11-15T00:19:35;6.90;99.90
14741;DHT22;7462;53.530;9.414;2022-11-15T00:22:21;6.90;99.90
14741;DHT22;7462;53.530;9.414;2022-11-15T00:25:08;6.90;99.90
14741;DHT22;7462;53.530;9.414;2022-11-15T00:27:55;7.10;99.90
14741;DHT22;7462;53.530;9.414;2022-11-15T00:30:42;7.10;99.90
14741;DHT22;7462;53.530;9.414;2022-11-15T00:33:29;7.10;99.90
14741;DHT22;7462;53.530;9.414;2022-11-15T00:36:18;7.20;99.90
14741;DHT22;7462;53.530;9.414;2022-11-15T00:39:05;7.10;99.90
14741;DHT22;7462;53.530;9.414;2022-11-15T00:41:52;7.10;99.90
14741;DHT22;7462;53.530;9.414;2022-11-15T00:44:38;7.00;99.90
14741;DHT22;7462;53.530;9.414;2022-11-15T00:47:24;7.00;99.90
14741;DHT22;7462;53.530;9.414;2022-11-15T00:50:11;7.20;99.90
14741;DHT22;7462;53.530;9.414;2022-11-15T00:53:01;7.00;99.90
14741;DHT22;7462;53.530;9.414;2022-11-15T00:55:48;7.20;99.90
14741;DHT22;7462;53.530;9.414;2022-11-15T00:58:34;7.10;99.90
14741;DHT22;7462;53.530;9.414;2022-11-15T01:01:21;7.00;99.90
14741;DHT22;7462;53.530;9.414;2022-11-15T01:04:08;6.90;99.90
14741;DHT22;7462;53.530;9.414;2022-11-15T01:06:54;6.90;99.90
14741;DHT22;7462;53.530;9.414;2022-11-15T01:09:42;6.90;99.90
14741;DHT22;7462;53.530;9.414;2022-11-15T01:12:29;6.80;99.90
14741;DHT22;7462;53.530;9.414;2022-11-15T01:15:15;6.80;99.90
14741;DHT22;7462;53.530;9.414;2022-11-15T01:18:02;6.90;99.90
14741;DHT22;7462;53.530;9.414;2022-11-15T01:20:48;6.80;99.90
14741;DHT22;7462;53.530;9.414;2022-11-15T01:23:35;6.90;99.90
14741;DHT22;7462;53.530;9.414;2022-11-15T01:26:23;6.80;99.90
14741;DHT22;7462;53.530;9.414;2022-11-15T01:29:10;6.90;99.90
14741;DHT22;7462;53.530;9.414;2022-11-15T01:31:57;6.90;99.90
14741;DHT22;7462;53.530;9.414;2022-11-15T01:34:44;6.90;99.90
14741;DHT22;7462;53.530;9.414;2022-11-15T01:37:30;6.90;99.90
14741;DHT22;7462;53.530;9.414;2022-11-15T01:40:17;6.90;99.90
14741;DHT22;7462;53.530;9.414;2022-11-15T01:43:23;6.90;99.90
14741;DHT22;7462;53.530;9.414;2022-11-15T01:46:23;6.80;99.90
14741;DHT22;7462;53.530;9.414;2022-11-15T01:49:14;6.80;99.90
14741;DHT22;7462;53.530;9.414;2022-11-15T01:52:05;6.80;99.90
14741;DHT22;7462;53.530;9.414;2022-11-15T01:54:56;6.80;99.90
14741;DHT22;7462;53.530;9.414;2022-11-15T01:57:47;6.80;99.90
14741;DHT22;7462;53.530;9.414;2022-11-15T02:00:36;6.90;99.90
14741;DHT22;7462;53.530;9.414;2022-11-15T02:03:33;6.80;99.90
14741;DHT22;7462;53.530;9.414;2022-11-15T02:06:22;7.00;99.90
14741;DHT22;7462;53.530;9.414;2022-11-15T02:09:09;6.90;99.90
14741;DHT22;7462;53.530;9.414;2022-11-15T02:11:56;6.80;99.90
14741;DHT22;7462;53.530;9.414;2022-11-15T02:14:46;6.80;99.90
14741;DHT22;7462;53.530;9.414;2022-11-15T02:17:46;6.80;99.90
14741;DHT22;7462;53.530;9.414;2022-11-15T02:20:42;6.80;99.90
14741;DHT22;7462;53.530;9.414;2022-11-15T02:27:42;6.80;99.90
14741;DHT22;7462;53.530;9.414;2022-11-15T02:30:40;6.70;99.90
14741;DHT22;7462;53.530;9.414;2022-11-15T02:33:35;6.70;99.90
14741;DHT22;7462;53.530;9.414;2022-11-15T02:36:33;6.70;99.90
14741;DHT22;7462;53.530;9.414;2022-11-15T02:39:26;6.70;99.90
14741;DHT22;7462;53.530;9.414;2022-11-15T02:42:17;6.80;99.90
14741;DHT22;7462;53.530;9.414;2022-11-15T02:45:27;6.80;99.90
14741;DHT22;7462;53.530;9.414;2022-11-15T02:48:17;6.70;99.90
14741;DHT22;7462;53.530;9.414;2022-11-15T02:51:04;6.80;99.90
14741;DHT22;7462;53.530;9.414;2022-11-15T02:53:50;6.80;99.90
14741;DHT22;7462;53.530;9.414;2022-11-15T02:56:37;6.70;99.90
14741;DHT22;7462;53.530;9.414;2022-11-15T03:03:11;6.80;99.90
14741;DHT22;7462;53.530;9.414;2022-11-15T03:06:05;6.90;99.90
14741;DHT22;7462;53.530;9.414;2022-11-15T03:09:02;6.90;99.90
14741;DHT22;7462;53.530;9.414;2022-11-15T03:11:55;6.80;99.90
14741;DHT22;7462;53.530;9.414;2022-11-15T03:14:47;6.80;99.90
14741;DHT22;7462;53.530;9.414;2022-11-15T03:17:40;6.90;99.90
14741;DHT22;7462;53.530;9.414;2022-11-15T03:20:30;6.80;99.90
14741;DHT22;7462;53.530;9.414;2022-11-15T03:23:19;6.80;99.90
14741;DHT22;7462;53.530;9.414;2022-11-15T03:26:08;6.90;99.90
14741;DHT22;7462;53.530;9.414;2022-11-15T03:28:58;6.90;99.90
14741;DHT22;7462;53.530;9.414;2022-11-15T03:31:50;6.90;99.90
14741;DHT22;7462;53.530;9.414;2022-11-15T03:34:40;6.90;99.90
14741;DHT22;7462;53.530;9.414;2022-11-15T03:37:32;6.90;99.90
14741;DHT22;7462;53.530;9.414;2022-11-15T03:40:24;7.00;99.90
14741;DHT22;7462;53.530;9.414;2022-11-15T03:43:19;7.00;99.90
14741;DHT22;7462;53.530;9.414;2022-11-15T03:46:13;7.00;99.90
14741;DHT22;7462;53.530;9.414;2022-11-15T03:49:05;7.10;99.90
14741;DHT22;7462;53.530;9.414;2022-11-15T03:51:53;7.00;99.90
14741;DHT22;7462;53.530;9.414;2022-11-15T03:54:52;7.10;99.90
14741;DHT22;7462;53.530;9.414;2022-11-15T03:57:40;7.10;99.90
14741;DHT22;7462;53.530;9.414;2022-11-15T04:00:27;7.40;99.90
14741;DHT22;7462;53.530;9.414;2022-11-15T04:03:14;7.40;99.90
14741;DHT22;7462;53.530;9.414;2022-11-15T04:06:00;7.40;99.90
14741;DHT22;7462;53.530;9.414;2022-11-15T04:08:47;7.30;99.90
14741;DHT22;7462;53.530;9.414;2022-11-15T04:11:33;7.30;99.90
14741;DHT22;7462;53.530;9.414;2022-11-15T04:14:21;7.30;99.90
14741;DHT22;7462;53.530;9.414;2022-11-15T04:17:08;7.30;99.90
14741;DHT22;7462;53.530;9.414;2022-11-15T04:19:54;7.30;99.90
14741;DHT22;7462;53.530;9.414;2022-11-15T04:22:59;7.50;99.90
14741;DHT22;7462;53.530;9.414;2022-11-15T04:26:05;7.40;99.90
14741;DHT22;7462;53.530;9.414;2022-11-15T04:28:53;7.50;99.90
14741;DHT22;7462;53.530;9.414;2022-11-15T04:31:58;7.70;99.90
14741;DHT22;7462;53.530;9.414;2022-11-15T04:34:44;7.90;99.90
14741;DHT22;7462;53.530;9.414;2022-11-15T04:37:31;7.70;99.90
14741;DHT22;7462;53.530;9.414;2022-11-15T04:40:18;7.60;99.90
14741;DHT22;7462;53.530;9.414;2022-11-15T04:43:04;7.60;99.90
14741;DHT22;7462;53.530;9.414;2022-11-15T04:45:51;7.80;99.90
14741;DHT22;7462;53.530;9.414;2022-11-15T04:48:39;8.00;99.90
14741;DHT22;7462;53.530;9.414;2022-11-15T04:51:25;8.20;99.90
14741;DHT22;7462;53.530;9.414;2022-11-15T04:54:12;8.10;99.90
14741;DHT22;7462;53.530;9.414;2022-11-15T04:56:58;8.10;99.90
14741;DHT22;7462;53.530;9.414;2022-11-15T04:59:45;8.20;99.90
14741;DHT22;7462;53.530;9.414;2022-11-15T05:02:32;8.00;99.90
14741;DHT22;7462;53.530;9.414;2022-11-15T05:05:33;7.90;99.90
14741;DHT22;7462;53.530;9.414;2022-11-15T05:08:20;7.80;99.90
14741;DHT22;7462;53.530;9.414;2022-11-15T05:11:06;7.80;99.90
14741;DHT22;7462;53.530;9.414;2022-11-15T05:13:54;7.80;99.90
14741;DHT22;7462;53.530;9.414;2022-11-15T05:16:41;7.80;99.90
14741;DHT22;7462;53.530;9.414;2022-11-15T05:19:27;7.80;99.90
14741;DHT22;7462;53.530;9.414;2022-11-15T05:22:15;8.00;99.90
14741;DHT22;7462;53.530;9.414;2022-11-15T05:25:02;8.20;99.90
14741;DHT22;7462;53.530;9.414;2022-11-15T05:27:48;8.10;99.90
14741;DHT22;7462;53.530;9.414;2022-11-15T05:30:35;8.10;99.90
14741;DHT22;7462;53.530;9.414;2022-11-15T05:33:21;8.00;99.90
14741;DHT22;7462;53.530;9.414;2022-11-15T05:36:13;8.10;99.90
14741;DHT22;7462;53.530;9.414;2022-11-15T05:39:05;8.20;99.90
14741;DHT22;7462;53.530;9.414;2022-11-15T05:41:56;8.20;99.90
14741;DHT22;7462;53.530;9.414;2022-11-15T05:44:48;8.20;99.90
14741;DHT22;7462;53.530;9.414;2022-11-15T05:47:36;8.30;99.90
14741;DHT22;7462;53.530;9.414;2022-11-15T05:50:23;8.30;99.90
14741;DHT22;7462;53.530;9.414;2022-11-15T05:53:10;8.60;99.90
14741;DHT22;7462;53.530;9.414;2022-11-15T05:55:59;8.70;99.90
14741;DHT22;7462;53.530;9.414;2022-11-15T05:58:46;8.80;99.90
14741;DHT22;7462;53.530;9.414;2022-11-15T06:01:32;8.50;99.90
14741;DHT22;7462;53.530;9.414;2022-11-15T06:04:19;8.40;99.90
14741;DHT22;7462;53.530;9.414;2022-11-15T06:07:05;8.60;99.90
14741;DHT22;7462;53.530;9.414;2022-11-15T06:09:52;8.50;99.90
14741;DHT22;7462;53.530;9.414;2022-11-15T06:12:40;8.80;99.90
14741;DHT22;7462;53.530;9.414;2022-11-15T06:15:27;9.00;99.90
14741;DHT22;7462;53.530;9.414;2022-11-15T06:18:13;8.90;99.90
14741;DHT22;7462;53.530;9.414;2022-11-15T06:21:00;8.90;99.90
14741;DHT22;7462;53.530;9.414;2022-11-15T06:23:47;8.90;99.90
14741;DHT22;7462;53.530;9.414;2022-11-15T06:26:34;9.00;99.90
14741;DHT22;7462;53.530;9.414;2022-11-15T06:29:22;9.00;99.90
14741;DHT22;7462;53.530;9.414;2022-11-15T06:32:09;8.90;99.90
14741;DHT22;7462;53.530;9.414;2022-11-15T06:34:56;8.90;99.90
14741;DHT22;7462;53.530;9.414;2022-11-15T06:37:43;8.90;99.90
14741;DHT22;7462;53.530;9.414;2022-11-15T06:40:29;9.00;99.90
14741;DHT22;7462;53.530;9.414;2022-11-15T06:43:15;9.10;99.90
14741;DHT22;7462;53.530;9.414;2022-11-15T06:46:04;9.00;99.90
14741;DHT22;7462;53.530;9.414;2022-11-15T06:48:51;9.10;99.90
14741;DHT22;7462;53.530;9.414;2022-11-15T06:51:38;9.10;99.90
14741;DHT22;7462;53.530;9.414;2022-11-15T06:54:24;9.20;99.90
14741;DHT22;7462;53.530;9.414;2022-11-15T06:57:11;9.20;99.90
14741;DHT22;7462;53.530;9.414;2022-11-15T06:59:58;9.20;99.90
14741;DHT22;7462;53.530;9.414;2022-11-15T07:02:46;9.20;99.90
14741;DHT22;7462;53.530;9.414;2022-11-15T07:05:33;9.10;99.90
14741;DHT22;7462;53.530;9.414;2022-11-15T07:08:19;9.20;99.90
14741;DHT22;7462;53.530;9.414;2022-11-15T07:11:07;9.20;99.90
14741;DHT22;7462;53.530;9.414;2022-11-15T07:13:54;9.30;99.90
14741;DHT22;7462;53.530;9.414;2022-11-15T07:16:40;9.40;99.90
14741;DHT22;7462;53.530;9.414;2022-11-15T07:19:28;9.40;99.90
14741;DHT22;7462;53.530;9.414;2022-11-15T07:22:15;9.50;99.90
14741;DHT22;7462;53.530;9.414;2022-11-15T07:25:01;9.50;99.90
14741;DHT22;7462;53.530;9.414;2022-11-15T07:27:54;9.60;99.90
14741;DHT22;7462;53.530;9.414;2022-11-15T07:30:41;9.50;99.90
14741;DHT22;7462;53.530;9.414;2022-11-15T07:33:29;9.60;99.90
14741;DHT22;7462;53.530;9.414;2022-11-15T07:36:18;9.60;99.90
14741;DHT22;7462;53.530;9.414;2022-11-15T07:39:04;9.60;99.90
14741;DHT22;7462;53.530;9.414;2022-11-15T07:41:51;9.60;99.90
14741;DHT22;7462;53.530;9.414;2022-11-15T07:44:58;9.60;99.90
14741;DHT22;7462;53.530;9.414;2022-11-15T07:47:45;9.60;99.90
14741;DHT22;7462;53.530;9.414;2022-11-15T07:50:31;9.60;99.90
14741;DHT22;7462;53.530;9.414;2022-11-15T07:53:19;9.60;99.90
14741;DHT22;7462;53.530;9.414;2022-11-15T07:56:06;9.60;99.90
14741;DHT22;7462;53.530;9.414;2022-11-15T07:58:53;9.70;99.90
14741;DHT22;7462;53.530;9.414;2022-11-15T08:01:39;9.80;99.90
14741;DHT22;7462;53.530;9.414;2022-11-15T08:04:26;9.80;99.90
14741;DHT22;7462;53.530;9.414;2022-11-15T08:07:13;9.80;99.90
14741;DHT22;7462;53.530;9.414;2022-11-15T08:10:01;9.80;99.90
14741;DHT22;7462;53.530;9.414;2022-11-15T08:12:57;9.90;99.90
14741;DHT22;7462;53.530;9.414;2022-11-15T08:15:44;10.00;99.90
14741;DHT22;7462;53.530;9.414;2022-11-15T08:18:31;10.00;99.90
14741;DHT22;7462;53.530;9.414;2022-11-15T08:21:18;10.10;99.90
14741;DHT22;7462;53.530;9.414;2022-11-15T08:24:08;10.20;99.90
14741;DHT22;7462;53.530;9.414;2022-11-15T08:26:57;10.30;99.90
14741;DHT22;7462;53.530;9.414;2022-11-15T08:29:44;10.30;99.90
14741;DHT22;7462;53.530;9.414;2022-11-15T08:32:31;10.40;99.90
14741;DHT22;7462;53.530;9.414;2022-11-15T08:35:18;10.50;99.90
14741;DHT22;7462;53.530;9.414;2022-11-15T08:38:13;10.50;99.90
14741;DHT22;7462;53.530;9.414;2022-11-15T08:41:01;10.50;99.90
14741;DHT22;7462;53.530;9.414;2022-11-15T08:43:50;10.60;99.90
14741;DHT22;7462;53.530;9.414;2022-11-15T08:46:37;10.60;99.90
14741;DHT22;7462;53.530;9.414;2022-11-15T08:49:23;10.70;99.90
14741;DHT22;7462;53.530;9.414;2022-11-15T08:52:10;10.80;99.90
14741;DHT22;7462;53.530;9.414;2022-11-15T08:54:56;10.80;99.90
14741;DHT22;7462;53.530;9.414;2022-11-15T08:57:43;10.80;99.90
14741;DHT22;7462;53.530;9.414;2022-11-15T09:00:32;10.90;99.90
14741;DHT22;7462;53.530;9.414;2022-11-15T09:03:19;10.90;99.90
14741;DHT22;7462;53.530;9.414;2022-11-15T09:06:06;11.00;99.90
14741;DHT22;7462;53.530;9.414;2022-11-15T09:08:52;11.10;99.90
14741;DHT22;7462;53.530;9.414;2022-11-15T09:11:40;11.20;99.90
14741;DHT22;7462;53.530;9.414;2022-11-15T09:14:26;11.10;99.90
14741;DHT22;7462;53.530;9.414;2022-11-15T09:17:14;11.10;99.90
14741;DHT22;7462;53.530;9.414;2022-11-15T09:20:09;11.20;99.90
14741;DHT22;7462;53.530;9.414;2022-11-15T09:22:59;11.20;99.90
14741;DHT22;7462;53.530;9.414;2022-11-15T09:25:46;11.30;99.90
14741;DHT22;7462;53.530;9.414;2022-11-15T09:28:33;11.40;99.90
14741;DHT22;7462;53.530;9.414;2022-11-15T09:31:20;11.60;99.90
14741;DHT22;7462;53.530;9.414;2022-11-15T09:34:09;11.60;99.90
14741;DHT22;7462;53.530;9.414;2022-11-15T09:36:56;11.60;99.90
14741;DHT22;7462;53.530;9.414;2022-11-15T09:39:43;11.70;99.90
14741;DHT22;7462;53.530;9.414;2022-11-15T09:42:48;11.70;99.90
14741;DHT22;7462;53.530;9.414;2022-11-15T09:45:47;11.80;99.90
14741;DHT22;7462;53.530;9.414;2022-11-15T09:48:50;11.90;99.90
14741;DHT22;7462;53.530;9.414;2022-11-15T09:51:41;11.90;99.90
14741;DHT22;7462;53.530;9.414;2022-11-15T09:54:23;11.90;99.90
14741;DHT22;7462;53.530;9.414;2022-11-15T09:57:15;11.90;99.90
14741;DHT22;7462;53.530;9.414;2022-11-15T09:59:52;12.00;99.90
14741;DHT22;7462;53.530;9.414;2022-11-15T10:02:52;11.90;99.90
14741;DHT22;7462;53.530;9.414;2022-11-15T10:05:23;11.90;99.90
14741;DHT22;7462;53.530;9.414;2022-11-15T10:07:58;11.90;99.90
14741;DHT22;7462;53.530;9.414;2022-11-15T10:10:34;11.80;99.90
14741;DHT22;7462;53.530;9.414;2022-11-15T10:13:03;11.90;99.90
14741;DHT22;7462;53.530;9.414;2022-11-15T10:15:32;11.80;99.90
14741;DHT22;7462;53.530;9.414;2022-11-15T10:18:14;11.80;99.90
14741;DHT22;7462;53.530;9.414;2022-11-15T10:20:48;11.80;99.90
14741;DHT22;7462;53.530;9.414;2022-11-15T10:23:19;11.80;99.90
14741;DHT22;7462;53.530;9.414;2022-11-15T10:25:50;11.80;99.90
14741;DHT22;7462;53.530;9.414;2022-11-15T10:28:23;11.80;99.90
14741;DHT22;7462;53.530;9.414;2022-11-15T10:30:55;11.80;99.90
14741;DHT22;7462;53.530;9.414;2022-11-15T10:33:33;11.80;99.90
14741;DHT22;7462;53.530;9.414;2022-11-15T10:36:20;11.80;99.90
14741;DHT22;7462;53.530;9.414;2022-11-15T10:38:59;11.80;99.90
14741;DHT22;7462;53.530;9.414;2022-11-15T10:41:37;11.90;99.90
14741;DHT22;7462;53.530;9.414;2022-11-15T10:44:19;12.10;99.90
14741;DHT22;7462;53.530;9.414;2022-11-15T10:46:49;12.20;99.90
14741;DHT22;7462;53.530;9.414;2022-11-15T10:49:32;12.30;99.90
14741;DHT22;7462;53.530;9.414;2022-11-15T10:52:02;12.40;99.90
14741;DHT22;7462;53.530;9.414;2022-11-15T10:54:36;12.50;99.90
14741;DHT22;7462;53.530;9.414;2022-11-15T10:57:07;12.60;99.90
14741;DHT22;7462;53.530;9.414;2022-11-15T10:59:38;12.60;99.90
14741;DHT22;7462;53.530;9.414;2022-11-15T11:02:25;12.60;99.90
14741;DHT22;7462;53.530;9.414;2022-11-15T11:04:55;12.70;99.90
14741;DHT22;7462;53.530;9.414;2022-11-15T11:07:25;12.70;99.90
14741;DHT22;7462;53.530;9.414;2022-11-15T11:10:02;12.90;99.90
14741;DHT22;7462;53.530;9.414;2022-11-15T11:12:50;12.90;99.90
14741;DHT22;7462;53.530;9.414;2022-11-15T11:15:19;13.00;99.90
14741;DHT22;7462;53.530;9.414;2022-11-15T11:17:57;13.10;99.90
14741;DHT22;7462;53.530;9.414;2022-11-15T11:20:32;13.30;99.90
14741;DHT22;7462;53.530;9.414;2022-11-15T11:23:11;13.40;99.90
14741;DHT22;7462;53.530;9.414;2022-11-15T11:25:54;13.40;99.90
14741;DHT22;7462;53.530;9.414;2022-11-15T11:28:34;13.40;99.90
14741;DHT22;7462;53.530;9.414;2022-11-15T11:31:18;13.30;99.90
14741;DHT22;7462;53.530;9.414;2022-11-15T11:33:57;13.40;99.90
14741;DHT22;7462;53.530;9.414;2022-11-15T11:36:37;13.30;99.90
14741;DHT22;7462;53.530;9.414;2022-11-15T11:39:21;13.30;99.90
14741;DHT22;7462;53.530;9.414;2022-11-15T11:41:59;13.30;99.90
14741;DHT22;7462;53.530;9.414;2022-11-15T11:44:41;13.30;99.90
14741;DHT22;7462;53.530;9.414;2022-11-15T11:47:17;13.30;99.90
14741;DHT22;7462;53.530;9.414;2022-11-15T11:49:51;13.40;99.90
14741;DHT22;7462;53.530;9.414;2022-11-15T11:52:23;13.40;99.90
14741;DHT22;7462;53.530;9.414;2022-11-15T11:55:00;13.40;99.90
14741;DHT22;7462;53.530;9.414;2022-11-15T11:57:37;13.40;99.90
14741;DHT22;7462;53.530;9.414;2022-11-15T12:00:16;13.50;99.90
14741;DHT22;7462;53.530;9.414;2022-11-15T12:03:05;13.60;99.90
14741;DHT22;7462;53.530;9.414;2022-11-15T12:05:39;13.70;99.90
14741;DHT22;7462;53.530;9.414;2022-11-15T12:08:20;13.80;99.90
14741;DHT22;7462;53.530;9.414;2022-11-15T12:11:06;13.80;99.90
14741;DHT22;7462;53.530;9.414;2022-11-15T12:13:38;13.80;99.90
14741;DHT22;7462;53.530;9.414;2022-11-15T12:16:13;13.80;99.90
14741;DHT22;7462;53.530;9.414;2022-11-15T12:18:47;13.80;99.90
14741;DHT22;7462;53.530;9.414;2022-11-15T12:21:22;13.80;99.90
14741;DHT22;7462;53.530;9.414;2022-11-15T12:24:00;13.90;99.90
14741;DHT22;7462;53.530;9.414;2022-11-15T12:26:35;13.90;99.90
14741;DHT22;7462;53.530;9.414;2022-11-15T12:29:14;13.90;99.90
14741;DHT22;7462;53.530;9.414;2022-11-15T12:31:48;13.90;99.90
14741;DHT22;7462;53.530;9.414;2022-11-15T12:34:44;13.90;99.90
14741;DHT22;7462;53.530;9.414;2022-11-15T12:40:34;13.90;99.90
14741;DHT22;7462;53.530;9.414;2022-11-15T12:45:51;13.90;99.90
14741;DHT22;7462;53.530;9.414;2022-11-15T12:48:53;13.80;99.90
14741;DHT22;7462;53.530;9.414;2022-11-15T12:57:36;14.00;99.90
14741;DHT22;7462;53.530;9.414;2022-11-15T13:00:36;14.00;99.90
14741;DHT22;7462;53.530;9.414;2022-11-15T13:03:24;14.10;99.90
14741;DHT22;7462;53.530;9.414;2022-11-15T13:06:08;14.00;99.90
14741;DHT22;7462;53.530;9.414;2022-11-15T13:08:41;14.00;99.90
14741;DHT22;7462;53.530;9.414;2022-11-15T13:11:45;14.00;99.90
14741;DHT22;7462;53.530;9.414;2022-11-15T13:14:39;13.90;99.90
14741;DHT22;7462;53.530;9.414;2022-11-15T13:17:26;14.00;99.90
14741;DHT22;7462;53.530;9.414;2022-11-15T13:20:00;14.10;99.90
14741;DHT22;7462;53.530;9.414;2022-11-15T13:22:38;14.10;99.90
14741;DHT22;7462;53.530;9.414;2022-11-15T13:25:38;14.10;99.90
14741;DHT22;7462;53.530;9.414;2022-11-15T13:28:17;14.00;99.90
14741;DHT22;7462;53.530;9.414;2022-11-15T13:30:50;14.20;99.90
14741;DHT22;7462;53.530;9.414;2022-11-15T13:33:20;14.00;99.90
14741;DHT22;7462;53.530;9.414;2022-11-15T13:35:53;14.00;99.90
14741;DHT22;7462;53.530;9.414;2022-11-15T13:38:27;14.00;99.90
14741;DHT22;7462;53.530;9.414;2022-11-15T13:40:57;13.90;99.90
14741;DHT22;7462;53.530;9.414;2022-11-15T13:43:34;14.00;99.90
14741;DHT22;7462;53.530;9.414;2022-11-15T13:46:07;14.00;99.90
14741;DHT22;7462;53.530;9.414;2022-11-15T13:48:38;14.00;99.90
14741;DHT22;7462;53.530;9.414;2022-11-15T13:51:13;14.00;99.90
14741;DHT22;7462;53.530;9.414;2022-11-15T13:53:46;14.00;99.90
14741;DHT22;7462;53.530;9.414;2022-11-15T13:56:15;13.90;99.90
14741;DHT22;7462;53.530;9.414;2022-11-15T13:58:44;13.90;99.90
14741;DHT22;7462;53.530;9.414;2022-11-15T14:01:16;13.90;99.90
14741;DHT22;7462;53.530;9.414;2022-11-15T14:03:53;13.80;99.90
14741;DHT22;7462;53.530;9.414;2022-11-15T14:06:24;13.90;99.90
14741;DHT22;7462;53.530;9.414;2022-11-15T14:12:28;13.80;99.90
14741;DHT22;7462;53.530;9.414;2022-11-15T14:14:57;13.70;99.90
14741;DHT22;7462;53.530;9.414;2022-11-15T14:17:37;13.70;99.90
14741;DHT22;7462;53.530;9.414;2022-11-15T14:20:25;13.70;99.90
14741;DHT22;7462;53.530;9.414;2022-11-15T14:22:56;13.70;99.90
14741;DHT22;7462;53.530;9.414;2022-11-15T14:25:25;13.80;99.90
14741;DHT22;7462;53.530;9.414;2022-11-15T14:28:12;13.80;99.90
14741;DHT22;7462;53.530;9.414;2022-11-15T14:30:42;13.70;99.90
14741;DHT22;7462;53.530;9.414;2022-11-15T14:33:21;13.80;99.90
14741;DHT22;7462;53.530;9.414;2022-11-15T14:35:50;13.80;99.90
14741;DHT22;7462;53.530;9.414;2022-11-15T14:38:20;13.80;99.90
14741;DHT22;7462;53.530;9.414;2022-11-15T14:40:49;13.80;99.90
14741;DHT22;7462;53.530;9.414;2022-11-15T14:43:17;13.80;99.90
14741;DHT22;7462;53.530;9.414;2022-11-15T14:45:45;13.80;99.90
14741;DHT22;7462;53.530;9.414;2022-11-15T14:48:13;13.70;99.90
14741;DHT22;7462;53.530;9.414;2022-11-15T14:50:41;13.80;99.90
14741;DHT22;7462;53.530;9.414;2022-11-15T14:53:12;13.80;99.90
14741;DHT22;7462;53.530;9.414;2022-11-15T14:55:42;13.70;99.90
14741;DHT22;7462;53.530;9.414;2022-11-15T14:58:10;13.60;99.90
14741;DHT22;7462;53.530;9.414;2022-11-15T15:00:40;13.70;99.90
14741;DHT22;7462;53.530;9.414;2022-11-15T15:03:08;13.70;99.90
14741;DHT22;7462;53.530;9.414;2022-11-15T15:05:38;13.70;99.90
14741;DHT22;7462;53.530;9.414;2022-11-15T15:08:07;13.70;99.90
14741;DHT22;7462;53.530;9.414;2022-11-15T15:10:37;13.60;99.90
14741;DHT22;7462;53.530;9.414;2022-11-15T15:13:16;13.60;99.90
14741;DHT22;7462;53.530;9.414;2022-11-15T15:15:45;13.60;99.90
14741;DHT22;7462;53.530;9.414;2022-11-15T15:18:13;13.60;99.90
14741;DHT22;7462;53.530;9.414;2022-11-15T15:20:43;13.40;99.90
14741;DHT22;7462;53.530;9.414;2022-11-15T15:23:16;13.40;99.90
14741;DHT22;7462;53.530;9.414;2022-11-15T15:25:45;13.30;99.90
14741;DHT22;7462;53.530;9.414;2022-11-15T15:28:16;13.20;99.90
14741;DHT22;7462;53.530;9.414;2022-11-15T15:30:44;13.10;99.90
14741;DHT22;7462;53.530;9.414;2022-11-15T15:33:12;13.10;99.90
14741;DHT22;7462;53.530;9.414;2022-11-15T15:35:41;13.20;99.90
14741;DHT22;7462;53.530;9.414;2022-11-15T15:38:11;13.10;99.90
14741;DHT22;7462;53.530;9.414;2022-11-15T15:40:39;13.00;99.90
14741;DHT22;7462;53.530;9.414;2022-11-15T15:43:07;12.80;99.90
14741;DHT22;7462;53.530;9.414;2022-11-15T15:45:38;12.90;99.90
14741;DHT22;7462;53.530;9.414;2022-11-15T15:48:10;12.80;99.90
14741;DHT22;7462;53.530;9.414;2022-11-15T15:50:39;12.80;99.90
14741;DHT22;7462;53.530;9.414;2022-11-15T15:53:10;12.70;99.90
14741;DHT22;7462;53.530;9.414;2022-11-15T15:55:39;12.80;99.90
14741;DHT22;7462;53.530;9.414;2022-11-15T15:58:07;12.80;99.90
14741;DHT22;7462;53.530;9.414;2022-11-15T16:00:37;12.70;99.90
14741;DHT22;7462;53.530;9.414;2022-11-15T16:03:05;12.60;99.90
14741;DHT22;7462;53.530;9.414;2022-11-15T16:05:33;12.60;99.90
14741;DHT22;7462;53.530;9.414;2022-11-15T16:08:03;12.60;99.90
14741;DHT22;7462;53.530;9.414;2022-11-15T16:10:32;12.50;99.90
14741;DHT22;7462;53.530;9.414;2022-11-15T16:13:01;12.50;99.90
14741;DHT22;7462;53.530;9.414;2022-11-15T16:15:30;12.50;99.90
14741;DHT22;7462;53.530;9.414;2022-11-15T16:18:00;12.50;99.90
14741;DHT22;7462;53.530;9.414;2022-11-15T16:20:35;12.40;99.90
14741;DHT22;7462;53.530;9.414;2022-11-15T16:23:07;12.30;99.90
14741;DHT22;7462;53.530;9.414;2022-11-15T16:25:39;12.30;99.90
14741;DHT22;7462;53.530;9.414;2022-11-15T16:28:18;12.30;99.90
14741;DHT22;7462;53.530;9.414;2022-11-15T16:30:47;12.20;99.90
14741;DHT22;7462;53.530;9.414;2022-11-15T16:33:23;12.20;99.90
14741;DHT22;7462;53.530;9.414;2022-11-15T16:35:52;12.00;99.90
14741;DHT22;7462;53.530;9.414;2022-11-15T16:38:20;12.00;99.90
14741;DHT22;7462;53.530;9.414;2022-11-15T16:40:48;12.00;99.90
14741;DHT22;7462;53.530;9.414;2022-11-15T16:43:16;11.90;99.90
14741;DHT22;7462;53.530;9.414;2022-11-15T16:45:44;11.80;99.90
14741;DHT22;7462;53.530;9.414;2022-11-15T16:48:22;11.80;99.90
14741;DHT22;7462;53.530;9.414;2022-11-15T16:50:54;11.70;99.90
14741;DHT22;7462;53.530;9.414;2022-11-15T16:53:23;11.70;99.90
14741;DHT22;7462;53.530;9.414;2022-11-15T16:55:52;11.60;99.90
14741;DHT22;7462;53.530;9.414;2022-11-15T16:58:20;11.50;99.90
14741;DHT22;7462;53.530;9.414;2022-11-15T17:00:50;11.50;99.90
14741;DHT22;7462;53.530;9.414;2022-11-15T17:03:19;11.40;99.90
14741;DHT22;7462;53.530;9.414;2022-11-15T17:05:47;11.40;99.90
14741;DHT22;7462;53.530;9.414;2022-11-15T17:08:17;11.40;99.90
14741;DHT22;7462;53.530;9.414;2022-11-15T17:10:46;11.30;99.90
14741;DHT22;7462;53.530;9.414;2022-11-15T17:13:14;11.30;99.90
14741;DHT22;7462;53.530;9.414;2022-11-15T17:15:42;11.30;99.90
14741;DHT22;7462;53.530;9.414;2022-11-15T17:18:11;11.30;99.90
14741;DHT22;7462;53.530;9.414;2022-11-15T17:20:40;11.20;99.90
14741;DHT22;7462;53.530;9.414;2022-11-15T17:23:12;11.20;99.90
14741;DHT22;7462;53.530;9.414;2022-11-15T17:25:42;11.20;99.90
14741;DHT22;7462;53.530;9.414;2022-11-15T17:28:10;11.20;99.90
14741;DHT22;7462;53.530;9.414;2022-11-15T17:30:40;11.20;99.90
14741;DHT22;7462;53.530;9.414;2022-11-15T17:33:09;11.20;99.90
14741;DHT22;7462;53.530;9.414;2022-11-15T17:35:37;11.10;99.90
14741;DHT22;7462;53.530;9.414;2022-11-15T17:38:05;11.10;99.90
14741;DHT22;7462;53.530;9.414;2022-11-15T17:40:33;11.10;99.90
14741;DHT22;7462;53.530;9.414;2022-11-15T17:43:04;11.00;99.90
14741;DHT22;7462;53.530;9.414;2022-11-15T17:45:32;11.00;99.90
14741;DHT22;7462;53.530;9.414;2022-11-15T17:48:00;11.10;99.90
14741;DHT22;7462;53.530;9.414;2022-11-15T17:50:28;11.20;99.90